Meteo Giornale » Osservazioni meteo Francia » Cannes

ore: 04:00 - Osservazioni Meteo Cannes
Lat. 43° 33' N Lon. 6° 57' E Alt. 3 metri s.l.m.

sereno Europe/Paris

21 °C

Sereno

Temp. 24 Ore

17 °C

30 °C

Nord

9.3 Km/h

Dew point 14 °C

Umidità 64 %

Visibilità  10 Km

Il sole sorge alle ore 05:50

Il sole tramonta alle ore 21:19

Data e Ora Cielo e Fenomeni T °C DP °C Um. % Pres. hPa Vis. km Vento km/h
Oggi h: 04:00 sereno Sereno 21 14 64 1018 10 N 9.3
Oggi h: 03:30 sereno Sereno 21 14 64 1018 10 N 7.4
Oggi h: 03:00 sereno Sereno 21 15 68 1018 10 N 7.4
Oggi h: 02:30 sereno Sereno 21 15 68 1018 10 N 5.5
Oggi h: 02:00 sereno Sereno 21 15 68 1018 10 N 7.4
Oggi h: 01:30 sereno Sereno 22 15 64 1018 10 N 9.3
Oggi h: 01:00 sereno Sereno 22 15 64 1018 10 N 7.4
Oggi h: 00:30 sereno Sereno 22 16 68 1018 10 N 5.5
Oggi h: 00:00 sereno Sereno 22 16 68 1018 10 N 5.5
Ieri h: 23:30 sereno Sereno 23 16 64 1018 10 N 5.5
Ieri h: 23:00 sereno Sereno 23 17 68 1018 10 N 5.5
Ieri h: 22:30 sereno Sereno 24 17 64 1018 10 N 5.5
Ieri h: 22:00 sereno Sereno 25 17 61 1018 10 N 0
Ieri h: 21:30 sereno Sereno 25 16 57 1017 10 N 1.8
Ieri h: 21:00 sereno Sereno 25 17 61 1017 10 N 5.5
Ieri h: 20:30 sereno Sereno 27 16 50 1017 10 N 5.5
Ieri h: 20:00 sereno Sereno 28 16 48 1017 10 N 5.5
Ieri h: 19:30 sereno Sereno 28 17 51 1017 10 N 5.5
Ieri h: 19:00 sereno Sereno 29 17 48 1017 10 S/SO 7.4
Ieri h: 18:30 sereno Sereno 29 16 45 1017 10 S/SO 9.3
Ieri h: 18:00 sereno Sereno 29 16 45 1017 10 S 11.1
Ieri h: 17:30 sereno Sereno 29 16 45 1017 10 S 13
Ieri h: 17:00 sereno Sereno 29 17 48 1017 10 S/SE 13
Ieri h: 16:30 sereno Sereno 29 18 51 1017 10 S 14.8
Ieri h: 16:00 sereno Sereno 29 17 48 1017 10 S/SE 16.7
Ieri h: 15:30 sereno Sereno 30 17 45 1017 10 S 13
Ieri h: 15:00 sereno Sereno 29 19 54 1017 10 S 13
Ieri h: 14:30 sereno Sereno 29 19 54 1018 10 S 11.1
Ieri h: 14:00 sereno Sereno 29 19 54 1018 10 S 11.1
Ieri h: 13:30 sereno Sereno 28 19 58 1018 10 S 13
Ieri h: 13:00 sereno Sereno 28 19 58 1018 10 S/SE 11.1
Ieri h: 12:30 sereno Sereno 27 19 61 1018 10 S 9.3
Ieri h: 12:00 sereno Sereno 27 19 61 1018 10 S 9.3
Ieri h: 11:30 sereno Sereno 27 18 57 1018 10 S 9.3
Ieri h: 11:00 sereno Sereno 27 18 57 1018 10 N 5.5
Ieri h: 10:30 sereno Sereno 27 18 57 1018 10 S 7.4
Ieri h: 10:00 sereno Sereno 27 18 57 1018 10 N 5.5
Ieri h: 09:30 sereno Sereno 27 17 54 1018 10 N 3.7
Ieri h: 09:00 sereno Sereno 25 18 65 1018 10 N 0
Ieri h: 08:30 sereno Sereno 24 18 69 1018 10 N 3.7
Ieri h: 08:00 sereno Sereno 21 17 77 1017 10 N 11.1
Ieri h: 07:30 sereno Sereno 20 16 77 1017 10 N 7.4
Ieri h: 06:00 sereno Sereno 17 15 88 1017 10 N 7.4
Ieri h: 05:30 sereno Sereno 17 16 93 1017 10 N 7.4
Ieri h: 05:00 sereno Sereno 18 16 88 1017 10 N 5.5